sensor_id;sensor_type;location;lat;lon;timestamp;P1;durP1;ratioP1;P2;durP2;ratioP2
9689;SDS011;4884;42.614;23.340;2023-08-30T00:02:07;16.00;;;14.33;;
9689;SDS011;4884;42.614;23.340;2023-08-30T00:04:33;17.17;;;15.50;;
9689;SDS011;4884;42.614;23.340;2023-08-30T00:06:59;18.57;;;15.30;;
9689;SDS011;4884;42.614;23.340;2023-08-30T00:09:24;16.97;;;15.30;;
9689;SDS011;4884;42.614;23.340;2023-08-30T00:11:50;16.83;;;14.43;;
9689;SDS011;4884;42.614;23.340;2023-08-30T00:14:15;18.47;;;16.00;;
9689;SDS011;4884;42.614;23.340;2023-08-30T00:16:41;17.10;;;14.43;;
9689;SDS011;4884;42.614;23.340;2023-08-30T00:19:06;16.37;;;14.63;;
9689;SDS011;4884;42.614;23.340;2023-08-30T00:21:31;15.57;;;13.97;;
9689;SDS011;4884;42.614;23.340;2023-08-30T00:23:57;17.13;;;13.53;;
9689;SDS011;4884;42.614;23.340;2023-08-30T00:26:22;16.07;;;14.53;;
9689;SDS011;4884;42.614;23.340;2023-08-30T00:28:47;16.33;;;14.73;;
9689;SDS011;4884;42.614;23.340;2023-08-30T00:31:13;16.00;;;14.37;;
9689;SDS011;4884;42.614;23.340;2023-08-30T00:33:38;15.00;;;13.50;;
9689;SDS011;4884;42.614;23.340;2023-08-30T00:36:04;14.33;;;12.83;;
9689;SDS011;4884;42.614;23.340;2023-08-30T00:38:30;13.30;;;11.53;;
9689;SDS011;4884;42.614;23.340;2023-08-30T00:40:58;11.90;;;10.80;;
9689;SDS011;4884;42.614;23.340;2023-08-30T00:43:23;12.80;;;10.13;;
9689;SDS011;4884;42.614;23.340;2023-08-30T00:45:49;10.67;;;9.73;;
9689;SDS011;4884;42.614;23.340;2023-08-30T00:48:14;11.47;;;10.30;;
9689;SDS011;4884;42.614;23.340;2023-08-30T00:50:41;11.63;;;10.43;;
9689;SDS011;4884;42.614;23.340;2023-08-30T00:53:07;10.90;;;9.17;;
9689;SDS011;4884;42.614;23.340;2023-08-30T00:55:36;11.57;;;10.33;;
9689;SDS011;4884;42.614;23.340;2023-08-30T00:58:02;11.80;;;10.17;;
9689;SDS011;4884;42.614;23.340;2023-08-30T01:00:29;10.20;;;9.40;;
9689;SDS011;4884;42.614;23.340;2023-08-30T01:02:55;9.80;;;8.87;;
9689;SDS011;4884;42.614;23.340;2023-08-30T01:05:21;10.00;;;8.93;;
9689;SDS011;4884;42.614;23.340;2023-08-30T01:07:47;9.73;;;8.43;;
9689;SDS011;4884;42.614;23.340;2023-08-30T01:10:13;9.73;;;8.83;;
9689;SDS011;4884;42.614;23.340;2023-08-30T01:12:40;9.47;;;8.50;;
9689;SDS011;4884;42.614;23.340;2023-08-30T01:15:14;9.67;;;8.33;;
9689;SDS011;4884;42.614;23.340;2023-08-30T01:17:41;15.07;;;9.03;;
9689;SDS011;4884;42.614;23.340;2023-08-30T01:20:08;12.00;;;9.50;;
9689;SDS011;4884;42.614;23.340;2023-08-30T01:22:53;10.80;;;8.43;;
9689;SDS011;4884;42.614;23.340;2023-08-30T01:25:40;10.80;;;9.70;;
9689;SDS011;4884;42.614;23.340;2023-08-30T01:28:08;10.73;;;9.63;;
9689;SDS011;4884;42.614;23.340;2023-08-30T01:30:34;11.17;;;10.10;;
9689;SDS011;4884;42.614;23.340;2023-08-30T01:33:02;12.47;;;11.27;;
9689;SDS011;4884;42.614;23.340;2023-08-30T01:35:29;16.43;;;12.40;;
9689;SDS011;4884;42.614;23.340;2023-08-30T01:37:58;11.67;;;10.50;;
9689;SDS011;4884;42.614;23.340;2023-08-30T01:40:25;12.80;;;11.47;;
9689;SDS011;4884;42.614;23.340;2023-08-30T01:42:52;13.67;;;11.60;;
9689;SDS011;4884;42.614;23.340;2023-08-30T01:45:18;13.80;;;10.83;;
9689;SDS011;4884;42.614;23.340;2023-08-30T01:47:45;13.40;;;11.77;;
9689;SDS011;4884;42.614;23.340;2023-08-30T01:50:11;12.43;;;11.23;;
9689;SDS011;4884;42.614;23.340;2023-08-30T01:52:37;13.33;;;11.07;;
9689;SDS011;4884;42.614;23.340;2023-08-30T01:55:03;12.53;;;11.30;;
9689;SDS011;4884;42.614;23.340;2023-08-30T01:57:28;12.23;;;10.93;;
9689;SDS011;4884;42.614;23.340;2023-08-30T01:59:54;12.47;;;10.70;;
9689;SDS011;4884;42.614;23.340;2023-08-30T02:02:19;13.97;;;10.63;;
9689;SDS011;4884;42.614;23.340;2023-08-30T02:04:45;11.77;;;10.57;;
9689;SDS011;4884;42.614;23.340;2023-08-30T02:07:19;12.43;;;11.23;;
9689;SDS011;4884;42.614;23.340;2023-08-30T02:09:57;11.47;;;10.47;;
9689;SDS011;4884;42.614;23.340;2023-08-30T02:12:24;11.80;;;10.13;;
9689;SDS011;4884;42.614;23.340;2023-08-30T02:14:57;11.63;;;10.43;;
9689;SDS011;4884;42.614;23.340;2023-08-30T02:17:23;11.90;;;10.57;;
9689;SDS011;4884;42.614;23.340;2023-08-30T02:19:49;12.20;;;11.00;;
9689;SDS011;4884;42.614;23.340;2023-08-30T02:22:18;11.63;;;10.43;;
9689;SDS011;4884;42.614;23.340;2023-08-30T02:24:43;12.87;;;10.70;;
9689;SDS011;4884;42.614;23.340;2023-08-30T02:27:08;11.93;;;10.37;;
9689;SDS011;4884;42.614;23.340;2023-08-30T02:29:34;13.10;;;9.80;;
9689;SDS011;4884;42.614;23.340;2023-08-30T02:31:59;14.10;;;9.80;;
9689;SDS011;4884;42.614;23.340;2023-08-30T02:34:25;11.83;;;8.93;;
9689;SDS011;4884;42.614;23.340;2023-08-30T02:36:50;13.93;;;10.27;;
9689;SDS011;4884;42.614;23.340;2023-08-30T02:39:15;11.93;;;8.23;;
9689;SDS011;4884;42.614;23.340;2023-08-30T02:41:41;12.50;;;8.40;;
9689;SDS011;4884;42.614;23.340;2023-08-30T02:44:07;10.67;;;8.07;;
9689;SDS011;4884;42.614;23.340;2023-08-30T02:46:33;11.60;;;7.80;;
9689;SDS011;4884;42.614;23.340;2023-08-30T02:48:58;9.13;;;8.30;;
9689;SDS011;4884;42.614;23.340;2023-08-30T02:51:24;10.90;;;7.33;;
9689;SDS011;4884;42.614;23.340;2023-08-30T02:53:49;9.37;;;7.87;;
9689;SDS011;4884;42.614;23.340;2023-08-30T02:56:14;9.30;;;8.33;;
9689;SDS011;4884;42.614;23.340;2023-08-30T02:58:40;12.73;;;8.63;;
9689;SDS011;4884;42.614;23.340;2023-08-30T03:01:06;11.47;;;8.00;;
9689;SDS011;4884;42.614;23.340;2023-08-30T03:03:32;9.43;;;7.03;;
9689;SDS011;4884;42.614;23.340;2023-08-30T03:05:57;13.07;;;7.33;;
9689;SDS011;4884;42.614;23.340;2023-08-30T03:08:23;13.10;;;7.43;;
9689;SDS011;4884;42.614;23.340;2023-08-30T03:10:48;10.20;;;8.00;;
9689;SDS011;4884;42.614;23.340;2023-08-30T03:13:13;8.23;;;7.43;;
9689;SDS011;4884;42.614;23.340;2023-08-30T03:15:39;9.40;;;7.27;;
9689;SDS011;4884;42.614;23.340;2023-08-30T03:18:04;8.10;;;7.13;;
9689;SDS011;4884;42.614;23.340;2023-08-30T03:20:29;8.33;;;7.30;;
9689;SDS011;4884;42.614;23.340;2023-08-30T03:22:58;9.77;;;7.97;;
9689;SDS011;4884;42.614;23.340;2023-08-30T03:25:23;15.17;;;8.57;;
9689;SDS011;4884;42.614;23.340;2023-08-30T03:27:49;8.80;;;7.60;;
9689;SDS011;4884;42.614;23.340;2023-08-30T03:30:14;11.30;;;8.60;;
9689;SDS011;4884;42.614;23.340;2023-08-30T03:32:40;10.30;;;8.00;;
9689;SDS011;4884;42.614;23.340;2023-08-30T03:35:05;8.63;;;7.73;;
9689;SDS011;4884;42.614;23.340;2023-08-30T03:37:31;12.43;;;7.53;;
9689;SDS011;4884;42.614;23.340;2023-08-30T03:39:57;9.13;;;7.10;;
9689;SDS011;4884;42.614;23.340;2023-08-30T03:42:22;9.53;;;7.43;;
9689;SDS011;4884;42.614;23.340;2023-08-30T03:44:47;10.13;;;7.53;;
9689;SDS011;4884;42.614;23.340;2023-08-30T03:47:13;8.03;;;6.70;;
9689;SDS011;4884;42.614;23.340;2023-08-30T03:49:38;9.43;;;7.80;;
9689;SDS011;4884;42.614;23.340;2023-08-30T03:52:04;7.70;;;6.37;;
9689;SDS011;4884;42.614;23.340;2023-08-30T03:54:29;9.33;;;6.77;;
9689;SDS011;4884;42.614;23.340;2023-08-30T03:56:55;10.47;;;7.60;;
9689;SDS011;4884;42.614;23.340;2023-08-30T03:59:20;13.80;;;7.53;;
9689;SDS011;4884;42.614;23.340;2023-08-30T04:01:47;16.40;;;7.27;;
9689;SDS011;4884;42.614;23.340;2023-08-30T04:04:13;9.13;;;6.43;;
9689;SDS011;4884;42.614;23.340;2023-08-30T04:06:39;10.60;;;6.43;;
9689;SDS011;4884;42.614;23.340;2023-08-30T04:09:05;7.37;;;5.97;;
9689;SDS011;4884;42.614;23.340;2023-08-30T04:11:30;8.43;;;5.60;;
9689;SDS011;4884;42.614;23.340;2023-08-30T04:13:55;7.77;;;6.10;;
9689;SDS011;4884;42.614;23.340;2023-08-30T04:16:21;7.47;;;5.17;;
9689;SDS011;4884;42.614;23.340;2023-08-30T04:18:46;8.30;;;5.13;;
9689;SDS011;4884;42.614;23.340;2023-08-30T04:21:11;7.63;;;5.40;;
9689;SDS011;4884;42.614;23.340;2023-08-30T04:23:37;5.70;;;5.10;;
9689;SDS011;4884;42.614;23.340;2023-08-30T04:26:02;11.83;;;5.13;;
9689;SDS011;4884;42.614;23.340;2023-08-30T04:28:28;5.43;;;4.90;;
9689;SDS011;4884;42.614;23.340;2023-08-30T04:30:54;7.20;;;5.90;;
9689;SDS011;4884;42.614;23.340;2023-08-30T04:33:19;8.73;;;5.53;;
9689;SDS011;4884;42.614;23.340;2023-08-30T04:35:49;5.87;;;5.37;;
9689;SDS011;4884;42.614;23.340;2023-08-30T04:38:15;10.90;;;5.10;;
9689;SDS011;4884;42.614;23.340;2023-08-30T04:40:40;6.10;;;5.10;;
9689;SDS011;4884;42.614;23.340;2023-08-30T04:43:06;6.33;;;5.43;;
9689;SDS011;4884;42.614;23.340;2023-08-30T04:45:31;7.90;;;5.40;;
9689;SDS011;4884;42.614;23.340;2023-08-30T04:47:58;11.13;;;6.23;;
9689;SDS011;4884;42.614;23.340;2023-08-30T04:50:24;9.73;;;5.60;;
9689;SDS011;4884;42.614;23.340;2023-08-30T04:52:49;10.23;;;6.57;;
9689;SDS011;4884;42.614;23.340;2023-08-30T04:55:15;10.90;;;6.37;;
9689;SDS011;4884;42.614;23.340;2023-08-30T04:57:40;7.00;;;6.07;;
9689;SDS011;4884;42.614;23.340;2023-08-30T05:00:09;9.23;;;7.30;;
9689;SDS011;4884;42.614;23.340;2023-08-30T05:02:36;12.70;;;8.37;;
9689;SDS011;4884;42.614;23.340;2023-08-30T05:05:01;14.17;;;9.60;;
9689;SDS011;4884;42.614;23.340;2023-08-30T05:07:27;11.93;;;8.73;;
9689;SDS011;4884;42.614;23.340;2023-08-30T05:09:53;13.60;;;9.33;;
9689;SDS011;4884;42.614;23.340;2023-08-30T05:12:18;15.77;;;9.83;;
9689;SDS011;4884;42.614;23.340;2023-08-30T05:14:44;13.23;;;8.90;;
9689;SDS011;4884;42.614;23.340;2023-08-30T05:17:09;13.27;;;9.80;;
9689;SDS011;4884;42.614;23.340;2023-08-30T05:19:35;10.97;;;9.83;;
9689;SDS011;4884;42.614;23.340;2023-08-30T05:22:00;13.20;;;9.83;;
9689;SDS011;4884;42.614;23.340;2023-08-30T05:24:25;12.10;;;9.67;;
9689;SDS011;4884;42.614;23.340;2023-08-30T05:26:52;14.43;;;8.93;;
9689;SDS011;4884;42.614;23.340;2023-08-30T05:29:17;13.20;;;9.50;;
9689;SDS011;4884;42.614;23.340;2023-08-30T05:31:43;15.37;;;9.63;;
9689;SDS011;4884;42.614;23.340;2023-08-30T05:34:09;13.27;;;9.17;;
9689;SDS011;4884;42.614;23.340;2023-08-30T05:36:35;13.43;;;9.33;;
9689;SDS011;4884;42.614;23.340;2023-08-30T05:39:00;19.03;;;12.43;;
9689;SDS011;4884;42.614;23.340;2023-08-30T05:41:25;11.83;;;8.97;;
9689;SDS011;4884;42.614;23.340;2023-08-30T05:43:51;9.90;;;8.37;;
9689;SDS011;4884;42.614;23.340;2023-08-30T05:46:16;11.20;;;6.93;;
9689;SDS011;4884;42.614;23.340;2023-08-30T05:48:42;13.53;;;6.60;;
9689;SDS011;4884;42.614;23.340;2023-08-30T05:51:08;8.63;;;5.80;;
9689;SDS011;4884;42.614;23.340;2023-08-30T05:53:33;8.73;;;6.27;;
9689;SDS011;4884;42.614;23.340;2023-08-30T05:55:58;13.17;;;7.40;;
9689;SDS011;4884;42.614;23.340;2023-08-30T05:58:24;7.07;;;6.20;;
9689;SDS011;4884;42.614;23.340;2023-08-30T06:00:49;6.90;;;5.20;;
9689;SDS011;4884;42.614;23.340;2023-08-30T06:03:14;10.30;;;6.63;;
9689;SDS011;4884;42.614;23.340;2023-08-30T06:05:40;15.70;;;5.80;;
9689;SDS011;4884;42.614;23.340;2023-08-30T06:08:05;13.10;;;6.40;;
9689;SDS011;4884;42.614;23.340;2023-08-30T06:10:31;7.93;;;5.93;;
9689;SDS011;4884;42.614;23.340;2023-08-30T06:12:56;9.20;;;6.70;;
9689;SDS011;4884;42.614;23.340;2023-08-30T06:15:21;11.30;;;6.53;;
9689;SDS011;4884;42.614;23.340;2023-08-30T06:17:47;9.97;;;5.97;;
9689;SDS011;4884;42.614;23.340;2023-08-30T06:20:13;11.77;;;6.73;;
9689;SDS011;4884;42.614;23.340;2023-08-30T06:22:38;11.87;;;6.53;;
9689;SDS011;4884;42.614;23.340;2023-08-30T06:25:06;13.50;;;6.67;;
9689;SDS011;4884;42.614;23.340;2023-08-30T06:27:31;6.27;;;5.67;;
9689;SDS011;4884;42.614;23.340;2023-08-30T06:29:57;12.77;;;5.70;;
9689;SDS011;4884;42.614;23.340;2023-08-30T06:32:22;10.50;;;5.77;;
9689;SDS011;4884;42.614;23.340;2023-08-30T06:34:48;6.93;;;5.37;;
9689;SDS011;4884;42.614;23.340;2023-08-30T06:37:13;12.30;;;6.03;;
9689;SDS011;4884;42.614;23.340;2023-08-30T06:39:38;6.27;;;5.30;;
9689;SDS011;4884;42.614;23.340;2023-08-30T06:42:04;8.67;;;5.93;;
9689;SDS011;4884;42.614;23.340;2023-08-30T06:44:29;6.97;;;4.93;;
9689;SDS011;4884;42.614;23.340;2023-08-30T06:46:58;7.50;;;4.60;;
9689;SDS011;4884;42.614;23.340;2023-08-30T06:49:23;9.13;;;5.37;;
9689;SDS011;4884;42.614;23.340;2023-08-30T06:51:49;6.17;;;4.67;;
9689;SDS011;4884;42.614;23.340;2023-08-30T06:54:15;8.10;;;4.50;;
9689;SDS011;4884;42.614;23.340;2023-08-30T06:56:40;7.20;;;5.67;;
9689;SDS011;4884;42.614;23.340;2023-08-30T06:59:07;7.90;;;5.40;;
9689;SDS011;4884;42.614;23.340;2023-08-30T07:01:32;7.87;;;5.47;;
9689;SDS011;4884;42.614;23.340;2023-08-30T07:03:57;6.70;;;5.20;;
9689;SDS011;4884;42.614;23.340;2023-08-30T07:06:23;13.27;;;5.40;;
9689;SDS011;4884;42.614;23.340;2023-08-30T07:08:49;8.40;;;4.80;;
9689;SDS011;4884;42.614;23.340;2023-08-30T07:11:14;9.23;;;5.22;;
9689;SDS011;4884;42.614;23.340;2023-08-30T07:13:40;5.95;;;5.20;;
9689;SDS011;4884;42.614;23.340;2023-08-30T07:16:05;6.68;;;5.03;;
9689;SDS011;4884;42.614;23.340;2023-08-30T07:18:30;9.77;;;4.90;;
9689;SDS011;4884;42.614;23.340;2023-08-30T07:20:56;6.30;;;5.20;;
9689;SDS011;4884;42.614;23.340;2023-08-30T07:23:21;8.98;;;5.28;;
9689;SDS011;4884;42.614;23.340;2023-08-30T07:25:47;9.13;;;5.70;;
9689;SDS011;4884;42.614;23.340;2023-08-30T07:28:12;6.37;;;4.80;;
9689;SDS011;4884;42.614;23.340;2023-08-30T07:30:37;7.27;;;4.80;;
9689;SDS011;4884;42.614;23.340;2023-08-30T07:33:03;5.70;;;5.18;;
9689;SDS011;4884;42.614;23.340;2023-08-30T07:35:29;7.97;;;4.85;;
9689;SDS011;4884;42.614;23.340;2023-08-30T07:37:55;4.93;;;4.43;;
9689;SDS011;4884;42.614;23.340;2023-08-30T07:40:21;8.77;;;4.63;;
9689;SDS011;4884;42.614;23.340;2023-08-30T07:42:51;8.13;;;5.03;;
9689;SDS011;4884;42.614;23.340;2023-08-30T07:45:16;6.00;;;4.57;;
9689;SDS011;4884;42.614;23.340;2023-08-30T07:47:42;11.50;;;5.60;;
9689;SDS011;4884;42.614;23.340;2023-08-30T07:50:07;7.13;;;5.43;;
9689;SDS011;4884;42.614;23.340;2023-08-30T07:52:33;9.77;;;5.32;;
9689;SDS011;4884;42.614;23.340;2023-08-30T07:54:58;7.75;;;5.15;;
9689;SDS011;4884;42.614;23.340;2023-08-30T07:57:23;8.65;;;4.97;;
9689;SDS011;4884;42.614;23.340;2023-08-30T07:59:49;9.45;;;4.78;;
9689;SDS011;4884;42.614;23.340;2023-08-30T08:02:14;8.20;;;5.28;;
9689;SDS011;4884;42.614;23.340;2023-08-30T08:04:39;7.75;;;4.20;;
9689;SDS011;4884;42.614;23.340;2023-08-30T08:07:05;8.32;;;4.13;;
9689;SDS011;4884;42.614;23.340;2023-08-30T08:09:30;8.13;;;4.00;;
9689;SDS011;4884;42.614;23.340;2023-08-30T08:11:56;9.13;;;3.97;;
9689;SDS011;4884;42.614;23.340;2023-08-30T08:14:24;7.85;;;5.20;;
9689;SDS011;4884;42.614;23.340;2023-08-30T08:16:49;5.63;;;4.00;;
9689;SDS011;4884;42.614;23.340;2023-08-30T08:19:15;10.73;;;4.30;;
9689;SDS011;4884;42.614;23.340;2023-08-30T08:21:40;5.68;;;4.00;;
9689;SDS011;4884;42.614;23.340;2023-08-30T08:24:06;5.20;;;4.35;;
9689;SDS011;4884;42.614;23.340;2023-08-30T08:26:31;8.75;;;4.15;;
9689;SDS011;4884;42.614;23.340;2023-08-30T08:28:57;6.43;;;4.05;;
9689;SDS011;4884;42.614;23.340;2023-08-30T08:31:22;6.85;;;4.00;;
9689;SDS011;4884;42.614;23.340;2023-08-30T08:33:50;4.03;;;3.45;;
9689;SDS011;4884;42.614;23.340;2023-08-30T08:36:16;8.60;;;4.18;;
9689;SDS011;4884;42.614;23.340;2023-08-30T08:38:42;7.70;;;4.82;;
9689;SDS011;4884;42.614;23.340;2023-08-30T08:41:08;8.70;;;4.45;;
9689;SDS011;4884;42.614;23.340;2023-08-30T08:43:37;9.60;;;5.00;;
9689;SDS011;4884;42.614;23.340;2023-08-30T08:46:05;11.25;;;5.78;;
9689;SDS011;4884;42.614;23.340;2023-08-30T08:48:31;11.32;;;5.13;;
9689;SDS011;4884;42.614;23.340;2023-08-30T08:50:59;4.97;;;4.47;;
9689;SDS011;4884;42.614;23.340;2023-08-30T08:53:25;6.75;;;4.90;;
9689;SDS011;4884;42.614;23.340;2023-08-30T08:55:50;8.40;;;4.70;;
9689;SDS011;4884;42.614;23.340;2023-08-30T08:58:16;6.28;;;5.20;;
9689;SDS011;4884;42.614;23.340;2023-08-30T09:00:42;7.85;;;4.50;;
9689;SDS011;4884;42.614;23.340;2023-08-30T09:03:08;10.35;;;5.28;;
9689;SDS011;4884;42.614;23.340;2023-08-30T09:05:34;6.78;;;4.28;;
9689;SDS011;4884;42.614;23.340;2023-08-30T09:08:01;9.32;;;4.68;;
9689;SDS011;4884;42.614;23.340;2023-08-30T09:10:28;11.20;;;4.25;;
9689;SDS011;4884;42.614;23.340;2023-08-30T09:12:53;7.95;;;4.55;;
9689;SDS011;4884;42.614;23.340;2023-08-30T09:15:19;6.10;;;5.22;;
9689;SDS011;4884;42.614;23.340;2023-08-30T09:17:44;5.38;;;4.45;;
9689;SDS011;4884;42.614;23.340;2023-08-30T09:20:11;8.85;;;4.55;;
9689;SDS011;4884;42.614;23.340;2023-08-30T09:22:38;8.60;;;6.03;;
9689;SDS011;4884;42.614;23.340;2023-08-30T09:25:05;6.95;;;5.03;;
9689;SDS011;4884;42.614;23.340;2023-08-30T09:27:34;6.28;;;5.25;;
9689;SDS011;4884;42.614;23.340;2023-08-30T09:30:00;12.45;;;4.80;;
9689;SDS011;4884;42.614;23.340;2023-08-30T09:32:25;6.20;;;4.35;;
9689;SDS011;4884;42.614;23.340;2023-08-30T09:34:50;10.57;;;5.15;;
9689;SDS011;4884;42.614;23.340;2023-08-30T09:37:20;5.75;;;4.38;;
9689;SDS011;4884;42.614;23.340;2023-08-30T09:39:51;7.88;;;4.88;;
9689;SDS011;4884;42.614;23.340;2023-08-30T09:42:17;7.53;;;5.57;;
9689;SDS011;4884;42.614;23.340;2023-08-30T09:44:43;7.05;;;4.53;;
9689;SDS011;4884;42.614;23.340;2023-08-30T09:47:09;8.02;;;4.55;;
9689;SDS011;4884;42.614;23.340;2023-08-30T09:49:37;6.13;;;4.72;;
9689;SDS011;4884;42.614;23.340;2023-08-30T09:52:08;7.25;;;4.30;;
9689;SDS011;4884;42.614;23.340;2023-08-30T09:54:34;9.70;;;5.88;;
9689;SDS011;4884;42.614;23.340;2023-08-30T09:57:03;8.55;;;5.50;;
9689;SDS011;4884;42.614;23.340;2023-08-30T09:59:28;9.15;;;4.88;;
9689;SDS011;4884;42.614;23.340;2023-08-30T10:01:54;6.43;;;4.57;;
9689;SDS011;4884;42.614;23.340;2023-08-30T10:04:20;5.68;;;4.80;;
9689;SDS011;4884;42.614;23.340;2023-08-30T10:06:46;7.60;;;5.18;;
9689;SDS011;4884;42.614;23.340;2023-08-30T10:09:12;10.57;;;5.63;;
9689;SDS011;4884;42.614;23.340;2023-08-30T10:11:39;6.78;;;5.15;;
9689;SDS011;4884;42.614;23.340;2023-08-30T10:14:05;8.23;;;6.07;;
9689;SDS011;4884;42.614;23.340;2023-08-30T10:16:35;6.60;;;4.85;;
9689;SDS011;4884;42.614;23.340;2023-08-30T10:19:07;6.15;;;5.30;;
9689;SDS011;4884;42.614;23.340;2023-08-30T10:21:35;13.27;;;5.55;;
9689;SDS011;4884;42.614;23.340;2023-08-30T10:24:01;8.18;;;5.10;;
9689;SDS011;4884;42.614;23.340;2023-08-30T10:26:28;9.57;;;6.00;;
9689;SDS011;4884;42.614;23.340;2023-08-30T10:28:55;7.25;;;6.05;;
9689;SDS011;4884;42.614;23.340;2023-08-30T10:31:20;6.05;;;5.50;;
9689;SDS011;4884;42.614;23.340;2023-08-30T10:33:46;7.72;;;5.68;;
9689;SDS011;4884;42.614;23.340;2023-08-30T10:36:22;7.35;;;5.78;;
9689;SDS011;4884;42.614;23.340;2023-08-30T10:38:49;9.52;;;5.63;;
9689;SDS011;4884;42.614;23.340;2023-08-30T10:41:19;8.35;;;6.22;;
9689;SDS011;4884;42.614;23.340;2023-08-30T10:43:50;8.30;;;5.68;;
9689;SDS011;4884;42.614;23.340;2023-08-30T10:46:17;11.13;;;7.10;;
9689;SDS011;4884;42.614;23.340;2023-08-30T10:48:53;8.73;;;5.95;;
9689;SDS011;4884;42.614;23.340;2023-08-30T10:51:23;9.93;;;6.35;;
9689;SDS011;4884;42.614;23.340;2023-08-30T10:54:09;10.38;;;6.72;;
9689;SDS011;4884;42.614;23.340;2023-08-30T10:57:41;12.13;;;6.60;;
9689;SDS011;4884;42.614;23.340;2023-08-30T10:59:40;8.30;;;7.07;;
9689;SDS011;4884;42.614;23.340;2023-08-30T11:02:06;6.97;;;6.28;;
9689;SDS011;4884;42.614;23.340;2023-08-30T11:04:31;7.10;;;6.43;;
9689;SDS011;4884;42.614;23.340;2023-08-30T11:06:57;9.27;;;6.25;;
9689;SDS011;4884;42.614;23.340;2023-08-30T11:09:23;10.13;;;6.55;;
9689;SDS011;4884;42.614;23.340;2023-08-30T11:11:50;9.80;;;6.57;;
9689;SDS011;4884;42.614;23.340;2023-08-30T11:14:16;8.60;;;6.00;;
9689;SDS011;4884;42.614;23.340;2023-08-30T11:16:42;9.15;;;6.57;;
9689;SDS011;4884;42.614;23.340;2023-08-30T11:19:09;6.88;;;6.28;;
9689;SDS011;4884;42.614;23.340;2023-08-30T11:21:37;8.95;;;6.07;;
9689;SDS011;4884;42.614;23.340;2023-08-30T11:24:05;6.50;;;5.90;;
9689;SDS011;4884;42.614;23.340;2023-08-30T11:26:31;8.45;;;6.85;;
9689;SDS011;4884;42.614;23.340;2023-08-30T11:28:57;7.20;;;6.60;;
9689;SDS011;4884;42.614;23.340;2023-08-30T11:31:23;7.35;;;6.65;;
9689;SDS011;4884;42.614;23.340;2023-08-30T11:36:20;9.93;;;6.70;;
9689;SDS011;4884;42.614;23.340;2023-08-30T11:38:46;7.60;;;6.22;;
9689;SDS011;4884;42.614;23.340;2023-08-30T11:41:12;8.00;;;6.20;;
9689;SDS011;4884;42.614;23.340;2023-08-30T11:43:37;11.43;;;6.55;;
9689;SDS011;4884;42.614;23.340;2023-08-30T11:46:03;6.32;;;5.60;;
9689;SDS011;4884;42.614;23.340;2023-08-30T11:48:28;9.07;;;6.60;;
9689;SDS011;4884;42.614;23.340;2023-08-30T11:50:54;7.95;;;6.53;;
9689;SDS011;4884;42.614;23.340;2023-08-30T11:53:20;9.02;;;6.22;;
9689;SDS011;4884;42.614;23.340;2023-08-30T11:55:46;8.10;;;6.78;;
9689;SDS011;4884;42.614;23.340;2023-08-30T11:58:11;6.72;;;5.85;;
9689;SDS011;4884;42.614;23.340;2023-08-30T12:00:37;7.10;;;6.40;;
9689;SDS011;4884;42.614;23.340;2023-08-30T12:03:04;10.60;;;6.45;;
9689;SDS011;4884;42.614;23.340;2023-08-30T12:05:30;7.10;;;6.05;;
9689;SDS011;4884;42.614;23.340;2023-08-30T12:07:59;10.55;;;6.45;;
9689;SDS011;4884;42.614;23.340;2023-08-30T12:10:25;6.82;;;6.22;;
9689;SDS011;4884;42.614;23.340;2023-08-30T12:12:51;7.70;;;6.38;;
9689;SDS011;4884;42.614;23.340;2023-08-30T12:15:16;7.32;;;6.20;;
9689;SDS011;4884;42.614;23.340;2023-08-30T12:17:42;7.63;;;6.95;;
9689;SDS011;4884;42.614;23.340;2023-08-30T12:20:14;7.45;;;6.40;;
9689;SDS011;4884;42.614;23.340;2023-08-30T12:22:41;7.00;;;6.40;;
9689;SDS011;4884;42.614;23.340;2023-08-30T12:27:45;9.55;;;7.85;;
9689;SDS011;4884;42.614;23.340;2023-08-30T12:30:11;7.63;;;6.00;;
9689;SDS011;4884;42.614;23.340;2023-08-30T12:32:37;10.00;;;6.55;;
9689;SDS011;4884;42.614;23.340;2023-08-30T12:35:03;7.15;;;6.45;;
9689;SDS011;4884;42.614;23.340;2023-08-30T12:37:28;7.25;;;6.43;;
9689;SDS011;4884;42.614;23.340;2023-08-30T12:39:54;9.25;;;6.75;;
9689;SDS011;4884;42.614;23.340;2023-08-30T12:42:19;7.38;;;6.50;;
9689;SDS011;4884;42.614;23.340;2023-08-30T12:44:45;7.35;;;6.63;;
9689;SDS011;4884;42.614;23.340;2023-08-30T12:47:11;14.40;;;7.30;;
9689;SDS011;4884;42.614;23.340;2023-08-30T12:49:39;9.20;;;6.30;;
9689;SDS011;4884;42.614;23.340;2023-08-30T12:52:04;7.55;;;6.85;;
9689;SDS011;4884;42.614;23.340;2023-08-30T12:54:30;7.70;;;7.00;;
9689;SDS011;4884;42.614;23.340;2023-08-30T12:56:55;10.80;;;7.53;;
9689;SDS011;4884;42.614;23.340;2023-08-30T12:59:21;10.32;;;6.43;;
9689;SDS011;4884;42.614;23.340;2023-08-30T13:01:46;7.68;;;6.70;;
9689;SDS011;4884;42.614;23.340;2023-08-30T13:04:12;7.68;;;6.65;;
9689;SDS011;4884;42.614;23.340;2023-08-30T13:06:37;7.95;;;6.82;;
9689;SDS011;4884;42.614;23.340;2023-08-30T13:09:02;8.32;;;6.72;;
9689;SDS011;4884;42.614;23.340;2023-08-30T13:11:28;10.20;;;7.22;;
9689;SDS011;4884;42.614;23.340;2023-08-30T13:13:55;9.43;;;7.47;;
9689;SDS011;4884;42.614;23.340;2023-08-30T13:16:23;8.30;;;7.40;;
9689;SDS011;4884;42.614;23.340;2023-08-30T13:18:48;8.07;;;7.22;;
9689;SDS011;4884;42.614;23.340;2023-08-30T13:21:14;8.80;;;7.53;;
9689;SDS011;4884;42.614;23.340;2023-08-30T13:23:39;7.80;;;7.03;;
9689;SDS011;4884;42.614;23.340;2023-08-30T13:26:04;11.95;;;8.20;;
9689;SDS011;4884;42.614;23.340;2023-08-30T13:28:30;9.07;;;6.72;;
9689;SDS011;4884;42.614;23.340;2023-08-30T13:30:55;7.95;;;7.25;;
9689;SDS011;4884;42.614;23.340;2023-08-30T13:33:21;8.02;;;7.00;;
9689;SDS011;4884;42.614;23.340;2023-08-30T13:35:49;8.40;;;6.70;;
9689;SDS011;4884;42.614;23.340;2023-08-30T13:38:16;7.15;;;6.38;;
9689;SDS011;4884;42.614;23.340;2023-08-30T13:40:41;11.82;;;7.00;;
9689;SDS011;4884;42.614;23.340;2023-08-30T13:43:07;7.45;;;6.75;;
9689;SDS011;4884;42.614;23.340;2023-08-30T13:45:32;9.68;;;7.30;;
9689;SDS011;4884;42.614;23.340;2023-08-30T13:47:57;7.50;;;6.80;;
9689;SDS011;4884;42.614;23.340;2023-08-30T13:50:24;9.05;;;6.72;;
9689;SDS011;4884;42.614;23.340;2023-08-30T13:52:51;13.88;;;7.45;;
9689;SDS011;4884;42.614;23.340;2023-08-30T13:55:17;8.82;;;6.28;;
9689;SDS011;4884;42.614;23.340;2023-08-30T13:57:42;8.65;;;5.32;;
9689;SDS011;4884;42.614;23.340;2023-08-30T14:00:08;7.25;;;5.95;;
9689;SDS011;4884;42.614;23.340;2023-08-30T14:02:35;7.90;;;5.20;;
9689;SDS011;4884;42.614;23.340;2023-08-30T14:05:01;5.10;;;4.60;;
9689;SDS011;4884;42.614;23.340;2023-08-30T14:07:27;7.63;;;5.25;;
9689;SDS011;4884;42.614;23.340;2023-08-30T14:09:52;6.68;;;5.38;;
9689;SDS011;4884;42.614;23.340;2023-08-30T14:12:18;5.45;;;4.95;;
9689;SDS011;4884;42.614;23.340;2023-08-30T14:14:43;6.47;;;5.55;;
9689;SDS011;4884;42.614;23.340;2023-08-30T14:17:09;5.45;;;4.95;;
9689;SDS011;4884;42.614;23.340;2023-08-30T14:19:34;8.35;;;5.40;;
9689;SDS011;4884;42.614;23.340;2023-08-30T14:22:00;5.47;;;5.05;;
9689;SDS011;4884;42.614;23.340;2023-08-30T14:24:28;5.22;;;4.72;;
9689;SDS011;4884;42.614;23.340;2023-08-30T14:26:54;5.82;;;4.95;;
9689;SDS011;4884;42.614;23.340;2023-08-30T14:29:20;5.05;;;4.60;;
9689;SDS011;4884;42.614;23.340;2023-08-30T14:31:47;6.30;;;4.57;;
9689;SDS011;4884;42.614;23.340;2023-08-30T14:34:12;6.13;;;5.15;;
9689;SDS011;4884;42.614;23.340;2023-08-30T14:36:37;4.72;;;4.20;;
9689;SDS011;4884;42.614;23.340;2023-08-30T14:39:03;5.32;;;4.43;;
9689;SDS011;4884;42.614;23.340;2023-08-30T14:41:28;12.65;;;4.57;;
9689;SDS011;4884;42.614;23.340;2023-08-30T14:43:54;9.40;;;6.78;;
9689;SDS011;4884;42.614;23.340;2023-08-30T14:46:20;10.57;;;4.65;;
9689;SDS011;4884;42.614;23.340;2023-08-30T14:48:45;5.20;;;4.68;;
9689;SDS011;4884;42.614;23.340;2023-08-30T14:51:11;8.65;;;4.85;;
9689;SDS011;4884;42.614;23.340;2023-08-30T14:53:36;8.32;;;5.10;;
9689;SDS011;4884;42.614;23.340;2023-08-30T14:56:03;10.93;;;5.18;;